Versailles, IN (47042)

9:16 PM EDT on July 24, 2016 (GMT -0400)
APRSWXNET | | Change Station

Elev 954 ft 39.07 °N, 85.25 °W | Updated 23 minutes ago

Scattered Clouds
Scattered Clouds
87 °F
Feels Like 98 °F
N
0
Wind Variable Wind from SSW
Gusts 1.0 mph

Today
High -- | Low -- °F
--% Chance of Precip.
Yesterday
High -- | Low -- °F
Precip. -- in
Pressure 29.94 in
Visibility 9.0 miles
Clouds Scattered Clouds 25000 ft
Heat Index 98 °F
Dew Point 76 °F
Humidity 70%
Rainfall in
Snow Depth Not available.
6:35 AM 8:59 PM
Waning Gibbous, 71% visible
METAR KCVG 250052Z 20004KT 9SM SCT250 30/24 A2998 RMK AO2 SLP138 T03000244
Pressure 29.94 in
Visibility 9.0 miles
Clouds Scattered Clouds 25000 ft
Heat Index 98 °F
Dew Point 76 °F
Humidity 70%
Rainfall in
Snow Depth Not available.
6:35 AM 8:59 PM
Waning Gibbous, 71% visible
METAR KCVG 250052Z 20004KT 9SM SCT250 30/24 A2998 RMK AO2 SLP138 T03000244

10-Day Weather Forecast

Almanac

Astronomy

Jul. 24, 2016 Rise Set
Actual Time
Civil Twilight
Nautical Twilight
Astronomical Twilight
Moon
Length of Visible Light
Length of Day
Tomorrow will be .
, % of the Moon is Illuminated

Today's Extremes

State Highs State Lows

Community

WunderPhotos

Upload Photos

1,927,225 photos uploaded!

WunderBlog® & News

Nearby

Air Quality

  Air Quality AQ Index Pollutant
Not available.

Snow Depth

Station Depth Elevation

Earthquake Activity

City Distance Mag. Time & Date
Minimum magnitude displayed is 2.5.

Coastal Water Temperatures

Place Temperature

Stations

Nearby Weather Stations

Station Location Temp. Windchill Dew Point Humidity Wind Precip. Elev Updated Type
                   

Watches & Warnings

There are currently no watches in effect.